Time;durP1;ratioP1;P1;durP2;ratioP2;P2;SDS_P1;SDS_P2;PMS_P1;PMS_P2;Temp;Humidity;BMP_temperature;BMP_pressure;BME280_temperature;BME280_humidity;BME280_pressure;Samples;Min_cycle;Max_cycle;Signal;HPM_P1;HPM_P2
2023/07/11 00:00:56;;;;;;;9.30;7.82;;;;;;;;;;5037851;28;20210;-65
2023/07/11 00:03:24;;;;;;;9.70;8.25;;;;;;;;;;5037155;28;20759;-64
2023/07/11 00:06:07;;;;;;;10.05;7.60;;;;;;;;;;5030790;28;20380;-66
2023/07/11 00:08:36;;;;;;;19.60;13.43;;;;;;;;;;5028138;28;20657;-64
2023/07/11 00:11:06;;;;;;;14.65;10.73;;;;;;;;;;5042453;28;20205;-65
2023/07/11 00:13:34;;;;;;;11.88;7.80;;;;;;;;;;5033195;28;20203;-64
2023/07/11 00:16:02;;;;;;;8.68;6.70;;;;;;;;;;5033985;28;20218;-64
2023/07/11 00:18:30;;;;;;;6.00;5.40;;;;;;;;;;5037987;28;20698;-66
2023/07/11 00:20:58;;;;;;;6.13;5.55;;;;;;;;;;5054928;28;20260;-66
2023/07/11 00:23:26;;;;;;;6.28;5.07;;;;;;;;;;5030234;28;20249;-65
2023/07/11 00:25:53;;;;;;;6.82;5.20;;;;;;;;;;5042692;28;20233;-65
2023/07/11 00:28:21;;;;;;;6.15;5.55;;;;;;;;;;5034555;28;20558;-65
2023/07/11 00:30:48;;;;;;;7.85;5.90;;;;;;;;;;5034188;28;20952;-65
2023/07/11 00:33:16;;;;;;;6.13;5.53;;;;;;;;;;5044240;28;20213;-65
2023/07/11 00:35:44;;;;;;;8.95;5.75;;;;;;;;;;5038289;28;20231;-66
2023/07/11 00:38:15;;;;;;;6.20;5.22;;;;;;;;;;5056253;28;20209;-65
2023/07/11 00:40:46;;;;;;;5.95;5.18;;;;;;;;;;5065550;28;20205;-68
2023/07/11 00:43:15;;;;;;;6.18;5.20;;;;;;;;;;5041443;28;20218;-67
2023/07/11 00:45:57;;;;;;;5.68;5.18;;;;;;;;;;5046497;28;20226;-65
2023/07/11 00:48:25;;;;;;;6.88;5.72;;;;;;;;;;5049939;28;20202;-66
2023/07/11 00:50:54;;;;;;;6.10;5.13;;;;;;;;;;5046708;28;20233;-66
2023/07/11 00:53:21;;;;;;;6.05;5.25;;;;;;;;;;5049561;28;20212;-64
2023/07/11 00:55:48;;;;;;;5.82;5.25;;;;;;;;;;5049073;28;20231;-67
2023/07/11 00:58:17;;;;;;;7.57;5.25;;;;;;;;;;5045860;28;20248;-63
2023/07/11 01:00:44;;;;;;;7.40;5.32;;;;;;;;;;5043404;28;20203;-63
2023/07/11 01:03:12;;;;;;;6.32;5.43;;;;;;;;;;5032404;28;20252;-64
2023/07/11 01:05:40;;;;;;;6.47;5.55;;;;;;;;;;5042133;28;20760;-64
2023/07/11 01:08:07;;;;;;;6.38;5.75;;;;;;;;;;5045825;28;20260;-68
2023/07/11 01:10:35;;;;;;;7.80;5.43;;;;;;;;;;5041503;28;20243;-68
2023/07/11 01:13:04;;;;;;;5.82;5.18;;;;;;;;;;5046169;28;20221;-64
2023/07/11 01:15:31;;;;;;;5.90;5.30;;;;;;;;;;5044248;28;20313;-69
2023/07/11 01:17:58;;;;;;;5.53;5.03;;;;;;;;;;5035886;28;20222;-64
2023/07/11 01:20:26;;;;;;;6.20;4.97;;;;;;;;;;5057011;28;20206;-64
2023/07/11 01:22:55;;;;;;;5.55;5.05;;;;;;;;;;5031109;28;20214;-66
2023/07/11 01:25:23;;;;;;;6.70;5.15;;;;;;;;;;5035170;28;20241;-62
2023/07/11 01:27:50;;;;;;;8.45;5.00;;;;;;;;;;5039933;28;20206;-65
2023/07/11 01:30:19;;;;;;;6.38;5.78;;;;;;;;;;5045677;28;20210;-69
2023/07/11 01:32:47;;;;;;;6.00;5.38;;;;;;;;;;5039652;28;20210;-67
2023/07/11 01:35:16;;;;;;;5.82;5.30;;;;;;;;;;5042587;28;20253;-64
2023/07/11 01:37:43;;;;;;;5.60;5.10;;;;;;;;;;5038680;28;20207;-67
2023/07/11 01:40:10;;;;;;;5.82;5.00;;;;;;;;;;5056654;28;20205;-69
2023/07/11 01:42:38;;;;;;;6.22;5.00;;;;;;;;;;5038730;28;20726;-63
2023/07/11 01:45:06;;;;;;;5.65;4.95;;;;;;;;;;5044307;28;20259;-64
2023/07/11 01:47:34;;;;;;;12.02;9.30;;;;;;;;;;5042243;28;20225;-64
2023/07/11 01:50:01;;;;;;;10.35;7.40;;;;;;;;;;5047804;28;20605;-66
2023/07/11 01:52:28;;;;;;;6.85;6.15;;;;;;;;;;5050515;28;20672;-70
2023/07/11 01:54:56;;;;;;;6.28;5.70;;;;;;;;;;5036569;28;20217;-70
2023/07/11 01:57:23;;;;;;;5.97;5.35;;;;;;;;;;5043391;28;20206;-63
2023/07/11 01:59:51;;;;;;;6.90;5.00;;;;;;;;;;5037187;28;20202;-64
2023/07/11 02:02:18;;;;;;;6.07;5.55;;;;;;;;;;5043392;28;20256;-65
2023/07/11 02:04:46;;;;;;;6.38;5.75;;;;;;;;;;5050256;28;20214;-65
2023/07/11 02:07:13;;;;;;;6.13;5.57;;;;;;;;;;5041234;28;20229;-64
2023/07/11 02:09:41;;;;;;;7.35;6.03;;;;;;;;;;5032551;28;20217;-66
2023/07/11 02:12:09;;;;;;;6.43;5.70;;;;;;;;;;5035846;28;20210;-65
2023/07/11 02:14:40;;;;;;;8.68;6.10;;;;;;;;;;5038819;28;20232;-65
2023/07/11 02:17:08;;;;;;;7.78;5.25;;;;;;;;;;5041484;28;20238;-65
2023/07/11 02:19:36;;;;;;;6.35;5.72;;;;;;;;;;5041851;28;20210;-66
2023/07/11 02:22:03;;;;;;;6.13;5.57;;;;;;;;;;5038175;28;20331;-65
2023/07/11 02:24:31;;;;;;;6.65;5.10;;;;;;;;;;5039772;28;20207;-65
2023/07/11 02:26:58;;;;;;;6.30;5.70;;;;;;;;;;5040249;28;20309;-65
2023/07/11 02:29:26;;;;;;;7.72;5.65;;;;;;;;;;5044405;28;20557;-65
2023/07/11 02:31:53;;;;;;;5.85;5.25;;;;;;;;;;5041676;28;20206;-64
2023/07/11 02:34:20;;;;;;;6.30;5.70;;;;;;;;;;5039675;28;20261;-64
2023/07/11 02:36:48;;;;;;;5.93;5.32;;;;;;;;;;5037355;28;20308;-64
2023/07/11 02:39:15;;;;;;;6.70;5.40;;;;;;;;;;5054036;28;20716;-64
2023/07/11 02:41:43;;;;;;;7.65;5.60;;;;;;;;;;5055170;28;20277;-65
2023/07/11 02:44:10;;;;;;;6.20;5.60;;;;;;;;;;5059919;28;20571;-65
2023/07/11 02:46:37;;;;;;;6.38;5.60;;;;;;;;;;5045346;28;20908;-64
2023/07/11 02:49:08;;;;;;;7.43;6.15;;;;;;;;;;5046226;28;20206;-64
2023/07/11 02:51:38;;;;;;;6.22;5.63;;;;;;;;;;5036366;28;20203;-64
2023/07/11 02:54:06;;;;;;;11.50;6.10;;;;;;;;;;5054747;28;20203;-64
2023/07/11 02:56:34;;;;;;;7.60;6.90;;;;;;;;;;5050631;28;20473;-65
2023/07/11 02:59:03;;;;;;;6.88;6.20;;;;;;;;;;5063504;28;20210;-65
2023/07/11 03:01:31;;;;;;;6.38;5.78;;;;;;;;;;5040633;28;20284;-65
2023/07/11 03:03:59;;;;;;;8.35;6.95;;;;;;;;;;5036269;28;20218;-64
2023/07/11 03:06:26;;;;;;;7.38;6.68;;;;;;;;;;5038589;28;20226;-64
2023/07/11 03:08:53;;;;;;;8.15;6.20;;;;;;;;;;5040620;28;20207;-64
2023/07/11 03:11:21;;;;;;;6.25;5.68;;;;;;;;;;5050147;28;20206;-65
2023/07/11 03:13:48;;;;;;;6.63;6.03;;;;;;;;;;5056981;28;20421;-65
2023/07/11 03:16:15;;;;;;;7.43;6.07;;;;;;;;;;5057765;28;20688;-65
2023/07/11 03:18:43;;;;;;;6.45;5.85;;;;;;;;;;5058948;28;20205;-66
2023/07/11 03:21:10;;;;;;;7.30;5.75;;;;;;;;;;5071290;28;20210;-66
2023/07/11 03:23:38;;;;;;;10.02;6.60;;;;;;;;;;5055300;28;20233;-65
2023/07/11 03:26:05;;;;;;;7.65;6.68;;;;;;;;;;5037294;28;20610;-65
2023/07/11 03:28:33;;;;;;;7.90;6.25;;;;;;;;;;5046107;28;20250;-66
2023/07/11 03:31:00;;;;;;;7.35;5.70;;;;;;;;;;5025010;28;20301;-64
2023/07/11 03:33:28;;;;;;;5.78;5.22;;;;;;;;;;5028962;28;20205;-66
2023/07/11 03:35:55;;;;;;;7.53;5.25;;;;;;;;;;5039223;28;20304;-67
2023/07/11 03:38:22;;;;;;;6.15;5.55;;;;;;;;;;5036811;28;20210;-64
2023/07/11 03:40:50;;;;;;;5.90;5.20;;;;;;;;;;5031820;28;20259;-65
2023/07/11 03:43:17;;;;;;;4.85;4.45;;;;;;;;;;5028933;28;20218;-65
2023/07/11 03:45:45;;;;;;;8.43;6.63;;;;;;;;;;5048317;28;20251;-66
2023/07/11 03:48:16;;;;;;;12.55;10.32;;;;;;;;;;5041123;28;20209;-65
2023/07/11 03:50:46;;;;;;;11.90;10.63;;;;;;;;;;5047625;28;20277;-65
2023/07/11 03:53:13;;;;;;;11.80;10.20;;;;;;;;;;5024762;28;20306;-64
2023/07/11 03:55:44;;;;;;;9.30;8.05;;;;;;;;;;5033810;28;20690;-67
2023/07/11 03:58:12;;;;;;;8.90;5.90;;;;;;;;;;5019605;28;20486;-65
2023/07/11 04:00:40;;;;;;;6.68;5.80;;;;;;;;;;5028141;28;20265;-64
2023/07/11 04:03:07;;;;;;;5.95;5.18;;;;;;;;;;5039283;28;20248;-65
2023/07/11 04:05:34;;;;;;;6.85;5.55;;;;;;;;;;5029288;28;20309;-65
2023/07/11 04:08:02;;;;;;;6.25;5.65;;;;;;;;;;5035933;28;20207;-65
2023/07/11 04:10:29;;;;;;;6.43;5.43;;;;;;;;;;5029740;28;20218;-65
2023/07/11 04:12:56;;;;;;;7.00;5.05;;;;;;;;;;5039175;28;20206;-66
2023/07/11 04:15:24;;;;;;;8.93;5.53;;;;;;;;;;5026372;28;20240;-66
2023/07/11 04:17:51;;;;;;;5.80;4.72;;;;;;;;;;5027706;28;20199;-66
2023/07/11 04:20:19;;;;;;;7.40;4.95;;;;;;;;;;5030413;28;20656;-66
2023/07/11 04:22:46;;;;;;;5.60;4.80;;;;;;;;;;5029138;28;20238;-65
2023/07/11 04:25:13;;;;;;;6.88;5.15;;;;;;;;;;5042021;28;20234;-64
2023/07/11 04:27:41;;;;;;;5.50;5.00;;;;;;;;;;5029481;28;20551;-64
2023/07/11 04:30:08;;;;;;;5.47;4.93;;;;;;;;;;5034711;28;20209;-65
2023/07/11 04:32:36;;;;;;;5.63;4.78;;;;;;;;;;5040113;28;20203;-65
2023/07/11 04:35:04;;;;;;;8.63;5.03;;;;;;;;;;5033638;28;20687;-65
2023/07/11 04:37:31;;;;;;;6.32;5.05;;;;;;;;;;5041843;28;20226;-65
2023/07/11 04:39:58;;;;;;;5.72;5.13;;;;;;;;;;5045017;28;20209;-64
2023/07/11 04:42:26;;;;;;;6.47;4.90;;;;;;;;;;5035083;28;20227;-65
2023/07/11 04:44:53;;;;;;;5.85;5.20;;;;;;;;;;5039901;28;20229;-66
2023/07/11 04:47:20;;;;;;;5.57;4.97;;;;;;;;;;5038483;28;20207;-64
2023/07/11 04:49:48;;;;;;;5.80;5.28;;;;;;;;;;5041771;28;20233;-65
2023/07/11 04:52:15;;;;;;;5.78;5.18;;;;;;;;;;5050924;28;20543;-65
2023/07/11 04:54:44;;;;;;;5.95;4.55;;;;;;;;;;5060114;28;20213;-65
2023/07/11 04:57:11;;;;;;;6.68;4.35;;;;;;;;;;5059047;28;20585;-64
2023/07/11 04:59:38;;;;;;;5.78;4.25;;;;;;;;;;5054402;28;20722;-66
2023/07/11 05:02:06;;;;;;;6.65;4.80;;;;;;;;;;5042255;28;20233;-66
2023/07/11 05:04:41;;;;;;;5.78;4.82;;;;;;;;;;5046052;28;20610;-64
2023/07/11 05:07:10;;;;;;;5.03;4.38;;;;;;;;;;5043812;28;20222;-65
2023/07/11 05:09:40;;;;;;;5.03;4.55;;;;;;;;;;5051118;28;20202;-65
2023/07/11 05:12:24;;;;;;;4.70;4.30;;;;;;;;;;5043470;28;20210;-65
2023/07/11 05:14:52;;;;;;;4.40;3.95;;;;;;;;;;5043283;28;20268;-65
2023/07/11 05:17:19;;;;;;;5.18;4.68;;;;;;;;;;5042533;28;20264;-64
2023/07/11 05:19:47;;;;;;;7.43;4.95;;;;;;;;;;5039755;28;20209;-63
2023/07/11 05:22:14;;;;;;;6.80;6.10;;;;;;;;;;5049020;28;20207;-64
2023/07/11 05:24:42;;;;;;;6.75;6.05;;;;;;;;;;5040327;28;20211;-63
2023/07/11 05:27:09;;;;;;;6.32;5.47;;;;;;;;;;5031305;28;20237;-63
2023/07/11 05:29:36;;;;;;;5.53;4.90;;;;;;;;;;5044938;28;20664;-65
2023/07/11 05:32:04;;;;;;;6.05;4.35;;;;;;;;;;5039215;28;20283;-64
2023/07/11 05:34:31;;;;;;;4.68;4.22;;;;;;;;;;5052825;28;20270;-64
2023/07/11 05:37:03;;;;;;;4.68;4.20;;;;;;;;;;5039004;28;20231;-64
2023/07/11 05:39:30;;;;;;;5.75;4.13;;;;;;;;;;5052527;28;20206;-66
2023/07/11 05:41:58;;;;;;;4.50;4.10;;;;;;;;;;5045064;28;20210;-67
2023/07/11 05:44:25;;;;;;;4.65;4.07;;;;;;;;;;5040299;28;20555;-63
2023/07/11 05:46:52;;;;;;;4.47;4.07;;;;;;;;;;5045982;28;20706;-64
2023/07/11 05:49:20;;;;;;;5.32;3.88;;;;;;;;;;5041102;28;20206;-64
2023/07/11 05:51:48;;;;;;;4.25;3.85;;;;;;;;;;5042577;28;20687;-63
2023/07/11 05:54:15;;;;;;;6.80;4.05;;;;;;;;;;5036693;28;20205;-65
2023/07/11 05:56:43;;;;;;;6.22;4.10;;;;;;;;;;5039896;28;20222;-64
2023/07/11 05:59:10;;;;;;;8.35;4.00;;;;;;;;;;5038697;28;20437;-64
2023/07/11 06:01:38;;;;;;;6.75;4.30;;;;;;;;;;5047620;28;20205;-65
2023/07/11 06:04:07;;;;;;;6.03;4.10;;;;;;;;;;5035829;28;20225;-65
2023/07/11 06:06:41;;;;;;;4.57;3.78;;;;;;;;;;5037771;28;20222;-65
2023/07/11 06:09:09;;;;;;;4.85;3.95;;;;;;;;;;5039630;28;20214;-65
2023/07/11 06:11:37;;;;;;;9.80;4.00;;;;;;;;;;5043199;28;20304;-64
2023/07/11 06:14:04;;;;;;;4.45;3.60;;;;;;;;;;5044526;28;20292;-64
2023/07/11 06:16:32;;;;;;;6.32;3.90;;;;;;;;;;5033086;28;20221;-66
2023/07/11 06:19:04;;;;;;;4.05;3.70;;;;;;;;;;5045850;28;20205;-65
2023/07/11 06:21:32;;;;;;;4.60;4.10;;;;;;;;;;5045709;28;20235;-63
2023/07/11 06:24:00;;;;;;;3.92;3.63;;;;;;;;;;5052308;28;20229;-65
2023/07/11 06:26:27;;;;;;;5.35;3.85;;;;;;;;;;5053302;28;20238;-63
2023/07/11 06:28:56;;;;;;;4.05;3.75;;;;;;;;;;5050165;28;20198;-64
2023/07/11 06:31:24;;;;;;;4.15;3.60;;;;;;;;;;5042338;28;20256;-64
2023/07/11 06:33:52;;;;;;;4.63;3.78;;;;;;;;;;5041732;28;20651;-64
2023/07/11 06:36:19;;;;;;;4.15;3.75;;;;;;;;;;5036915;28;20234;-64
2023/07/11 06:38:47;;;;;;;4.65;4.18;;;;;;;;;;5030176;28;20210;-65
2023/07/11 06:41:14;;;;;;;9.85;4.20;;;;;;;;;;5057963;28;20326;-64
2023/07/11 06:43:41;;;;;;;4.63;3.90;;;;;;;;;;5049805;28;20232;-67
2023/07/11 06:46:09;;;;;;;11.40;4.60;;;;;;;;;;5044290;28;20276;-63
2023/07/11 06:48:36;;;;;;;6.00;4.40;;;;;;;;;;5034087;28;20210;-64
2023/07/11 06:51:04;;;;;;;4.60;4.20;;;;;;;;;;5041534;28;20672;-65
2023/07/11 06:53:34;;;;;;;4.90;4.35;;;;;;;;;;5051190;28;20206;-64
2023/07/11 06:56:02;;;;;;;4.78;4.00;;;;;;;;;;5046278;28;20226;-64
2023/07/11 06:58:30;;;;;;;4.65;4.25;;;;;;;;;;5051015;28;20215;-64
2023/07/11 07:01:01;;;;;;;4.43;4.03;;;;;;;;;;5036481;28;20206;-64
2023/07/11 07:03:29;;;;;;;4.43;4.03;;;;;;;;;;5037239;28;20221;-63
2023/07/11 07:05:58;;;;;;;5.00;4.45;;;;;;;;;;5052519;28;20253;-63
2023/07/11 07:08:26;;;;;;;4.70;4.20;;;;;;;;;;5039547;28;20203;-63
2023/07/11 07:10:53;;;;;;;6.18;4.40;;;;;;;;;;5042586;28;20195;-64
2023/07/11 07:13:21;;;;;;;7.65;4.65;;;;;;;;;;5038581;28;20207;-66
2023/07/11 07:15:53;;;;;;;7.18;4.68;;;;;;;;;;5046962;28;20225;-70
2023/07/11 07:18:21;;;;;;;6.65;5.07;;;;;;;;;;5042074;28;20210;-68
2023/07/11 07:20:49;;;;;;;4.70;4.30;;;;;;;;;;5050671;28;20206;-66
2023/07/11 07:23:37;;;;;;;5.32;4.60;;;;;;;;;;5035557;28;20222;-64
2023/07/11 07:26:04;;;;;;;7.47;4.68;;;;;;;;;;5049186;28;20241;-64
2023/07/11 07:28:32;;;;;;;4.95;4.45;;;;;;;;;;5047571;28;20202;-66
2023/07/11 07:31:02;;;;;;;5.07;4.57;;;;;;;;;;5050312;28;20202;-65
2023/07/11 07:33:29;;;;;;;7.80;4.68;;;;;;;;;;5036863;28;20209;-67
2023/07/11 07:35:58;;;;;;;5.22;4.72;;;;;;;;;;5047981;28;20222;-65
2023/07/11 07:38:27;;;;;;;6.90;5.05;;;;;;;;;;5045989;28;20215;-67
2023/07/11 07:40:57;;;;;;;4.82;4.32;;;;;;;;;;5065095;28;20202;-69
2023/07/11 07:43:24;;;;;;;6.45;5.07;;;;;;;;;;5039002;28;20227;-67
2023/07/11 07:45:52;;;;;;;8.98;5.15;;;;;;;;;;5036820;28;20245;-64
2023/07/11 07:48:20;;;;;;;5.97;5.00;;;;;;;;;;5041791;28;20207;-63
2023/07/11 07:50:48;;;;;;;7.15;4.68;;;;;;;;;;5038752;28;20221;-65
2023/07/11 07:53:16;;;;;;;5.53;4.60;;;;;;;;;;5044700;28;20254;-64
2023/07/11 07:55:44;;;;;;;6.65;5.20;;;;;;;;;;5041846;28;20229;-69
2023/07/11 07:58:13;;;;;;;6.03;5.18;;;;;;;;;;5029585;28;20255;-67
2023/07/11 08:00:56;;;;;;;5.55;5.00;;;;;;;;;;5046703;28;20302;-63
2023/07/11 08:03:24;;;;;;;6.47;5.10;;;;;;;;;;5040298;28;20211;-63
2023/07/11 08:05:55;;;;;;;6.13;4.78;;;;;;;;;;5043300;28;20228;-69
2023/07/11 08:08:40;;;;;;;5.70;4.88;;;;;;;;;;5033976;28;20704;-66
2023/07/11 08:11:07;;;;;;;5.88;4.53;;;;;;;;;;5040837;28;20221;-64
2023/07/11 08:13:36;;;;;;;6.70;4.95;;;;;;;;;;5032414;28;20206;-63
2023/07/11 08:16:24;;;;;;;6.35;4.97;;;;;;;;;;5041279;28;20223;-64
2023/07/11 08:18:54;;;;;;;7.57;5.60;;;;;;;;;;5035734;28;20202;-63
2023/07/11 08:21:22;;;;;;;5.88;4.80;;;;;;;;;;5032348;28;20210;-64
2023/07/11 08:23:49;;;;;;;5.38;4.90;;;;;;;;;;5038819;28;20234;-63
2023/07/11 08:26:17;;;;;;;6.53;4.95;;;;;;;;;;5037056;28;20234;-65
2023/07/11 08:28:47;;;;;;;7.25;5.43;;;;;;;;;;5043059;28;20621;-66
2023/07/11 08:31:15;;;;;;;5.80;5.20;;;;;;;;;;5035804;28;20209;-71
2023/07/11 08:33:43;;;;;;;6.57;4.70;;;;;;;;;;5044614;28;20593;-66
2023/07/11 08:36:10;;;;;;;5.45;4.95;;;;;;;;;;5038834;28;20233;-64
2023/07/11 08:38:38;;;;;;;7.90;5.45;;;;;;;;;;5050762;28;20198;-62
2023/07/11 08:41:27;;;;;;;5.80;4.78;;;;;;;;;;5056951;28;20664;-64
2023/07/11 08:43:58;;;;;;;5.65;4.82;;;;;;;;;;5050706;28;20214;-63
2023/07/11 08:46:26;;;;;;;5.20;4.70;;;;;;;;;;5049035;28;20275;-65
2023/07/11 08:48:57;;;;;;;7.30;5.10;;;;;;;;;;5025562;28;20202;-67
2023/07/11 08:51:32;;;;;;;4.95;4.45;;;;;;;;;;5046710;28;20198;-67
2023/07/11 08:54:26;;;;;;;8.75;5.07;;;;;;;;;;5041333;28;20228;-63
2023/07/11 08:56:54;;;;;;;4.75;4.35;;;;;;;;;;5022567;28;20230;-68
2023/07/11 08:59:30;;;;;;;8.63;4.65;;;;;;;;;;5029378;28;20302;-68
2023/07/11 09:02:10;;;;;;;6.32;5.18;;;;;;;;;;5028342;28;20209;-64
2023/07/11 09:04:42;;;;;;;8.07;4.90;;;;;;;;;;5022325;28;20214;-68
2023/07/11 09:07:30;;;;;;;5.30;4.82;;;;;;;;;;5024815;28;20661;-68
2023/07/11 09:09:57;;;;;;;5.82;5.15;;;;;;;;;;5022171;28;20657;-64
2023/07/11 09:12:25;;;;;;;5.90;5.22;;;;;;;;;;5023744;28;20587;-67
2023/07/11 09:15:00;;;;;;;7.05;5.53;;;;;;;;;;5023955;28;20206;-67
2023/07/11 09:17:35;;;;;;;6.93;4.93;;;;;;;;;;5023996;28;20206;-64
2023/07/11 09:20:23;;;;;;;6.28;5.10;;;;;;;;;;5029575;28;20210;-63
2023/07/11 09:23:13;;;;;;;6.75;4.97;;;;;;;;;;5039765;28;20209;-70
2023/07/11 09:25:51;;;;;;;6.57;5.05;;;;;;;;;;5024774;28;20238;-67
2023/07/11 09:28:21;;;;;;;5.68;5.00;;;;;;;;;;5025753;28;20202;-69
2023/07/11 09:30:56;;;;;;;7.78;5.72;;;;;;;;;;5030876;28;20210;-66
2023/07/11 09:33:47;;;;;;;6.13;5.30;;;;;;;;;;5023904;28;20755;-65
2023/07/11 09:36:21;;;;;;;7.35;5.05;;;;;;;;;;5021183;28;20253;-64
2023/07/11 09:38:51;;;;;;;6.07;5.47;;;;;;;;;;5025605;28;20207;-67
2023/07/11 09:41:20;;;;;;;6.03;5.43;;;;;;;;;;5023583;28;20294;-65
2023/07/11 09:43:48;;;;;;;6.35;5.38;;;;;;;;;;5021844;28;20222;-68
2023/07/11 09:46:17;;;;;;;7.97;5.53;;;;;;;;;;5027313;28;20268;-66
2023/07/11 09:48:46;;;;;;;7.63;5.30;;;;;;;;;;5025314;28;20542;-65
2023/07/11 09:51:22;;;;;;;5.70;5.10;;;;;;;;;;5019514;28;20240;-65
2023/07/11 09:53:49;;;;;;;5.78;4.85;;;;;;;;;;5021142;28;20222;-67
2023/07/11 09:56:17;;;;;;;7.53;5.30;;;;;;;;;;5021117;28;20231;-65
2023/07/11 09:58:47;;;;;;;6.35;5.70;;;;;;;;;;5021050;28;20293;-67
2023/07/11 10:01:25;;;;;;;6.25;5.53;;;;;;;;;;5028899;28;20211;-65
2023/07/11 10:03:56;;;;;;;6.38;5.55;;;;;;;;;;5019641;28;20312;-65
2023/07/11 10:06:32;;;;;;;7.82;5.70;;;;;;;;;;5033917;28;20218;-64
2023/07/11 10:09:17;;;;;;;5.75;5.25;;;;;;;;;;5043951;28;20202;-65
2023/07/11 10:11:52;;;;;;;8.18;5.30;;;;;;;;;;5035756;28;20240;-62
2023/07/11 10:14:21;;;;;;;6.63;5.55;;;;;;;;;;5036359;28;20205;-67
2023/07/11 10:16:48;;;;;;;7.75;5.70;;;;;;;;;;5039687;28;20613;-66
2023/07/11 10:19:18;;;;;;;5.82;5.22;;;;;;;;;;5040022;28;20199;-62
2023/07/11 10:21:47;;;;;;;9.10;5.45;;;;;;;;;;5054589;28;20214;-66
2023/07/11 10:24:17;;;;;;;6.30;5.70;;;;;;;;;;5040093;28;20218;-67
2023/07/11 10:26:46;;;;;;;5.60;5.10;;;;;;;;;;5044149;28;20222;-65
2023/07/11 10:29:22;;;;;;;8.15;5.65;;;;;;;;;;5040178;28;20202;-65
2023/07/11 10:32:00;;;;;;;7.18;5.80;;;;;;;;;;5041234;28;20238;-66
2023/07/11 10:34:35;;;;;;;7.68;5.75;;;;;;;;;;5045186;28;20263;-65
2023/07/11 10:37:13;;;;;;;6.50;5.22;;;;;;;;;;5039340;28;20229;-66
2023/07/11 10:39:49;;;;;;;5.93;5.30;;;;;;;;;;5027039;28;20203;-63
2023/07/11 10:42:37;;;;;;;6.38;5.78;;;;;;;;;;5022957;28;20512;-65
2023/07/11 10:45:18;;;;;;;6.15;5.47;;;;;;;;;;5018332;28;20217;-64
2023/07/11 10:48:09;;;;;;;6.38;5.78;;;;;;;;;;5024341;28;20206;-66
2023/07/11 10:50:39;;;;;;;6.43;5.70;;;;;;;;;;5018435;28;20766;-65
2023/07/11 10:53:21;;;;;;;6.80;5.45;;;;;;;;;;5020991;28;20213;-63
2023/07/11 10:56:05;;;;;;;6.97;6.28;;;;;;;;;;5018097;28;20229;-65
2023/07/11 10:58:33;;;;;;;5.95;5.32;;;;;;;;;;5022128;28;20213;-66
2023/07/11 11:01:28;;;;;;;8.15;5.65;;;;;;;;;;5021504;28;20207;-64
2023/07/11 11:04:23;;;;;;;8.65;6.00;;;;;;;;;;5021789;28;20218;-63
2023/07/11 11:06:53;;;;;;;8.48;5.80;;;;;;;;;;5015880;28;20252;-64
2023/07/11 11:09:38;;;;;;;9.32;6.45;;;;;;;;;;5016696;28;20698;-64
2023/07/11 11:12:18;;;;;;;7.38;5.72;;;;;;;;;;5019660;28;20203;-64
2023/07/11 11:15:04;;;;;;;7.43;6.38;;;;;;;;;;5014452;28;20680;-64
2023/07/11 11:17:34;;;;;;;7.28;5.75;;;;;;;;;;5023879;28;20651;-64
2023/07/11 11:20:16;;;;;;;7.63;5.78;;;;;;;;;;5017074;28;20609;-63
2023/07/11 11:23:03;;;;;;;6.78;5.28;;;;;;;;;;5034561;28;20202;-65
2023/07/11 11:25:39;;;;;;;6.68;5.68;;;;;;;;;;5037382;28;20761;-65
2023/07/11 11:28:18;;;;;;;8.27;5.88;;;;;;;;;;5026647;28;20610;-67
2023/07/11 11:31:13;;;;;;;6.38;5.45;;;;;;;;;;5026757;28;20207;-64
2023/07/11 11:33:59;;;;;;;6.50;5.90;;;;;;;;;;5023372;28;20198;-64
2023/07/11 11:36:29;;;;;;;7.22;5.47;;;;;;;;;;5018644;28;20719;-67
2023/07/11 11:39:12;;;;;;;11.35;6.30;;;;;;;;;;5016585;28;20209;-66
2023/07/11 11:41:48;;;;;;;8.20;5.82;;;;;;;;;;5013692;28;20743;-64
2023/07/11 11:44:21;;;;;;;9.07;5.35;;;;;;;;;;5013319;28;20237;-65
2023/07/11 11:46:51;;;;;;;6.97;5.80;;;;;;;;;;5015882;28;20234;-64
2023/07/11 11:49:25;;;;;;;6.95;5.35;;;;;;;;;;5022880;28;20910;-65
2023/07/11 11:52:08;;;;;;;10.38;5.60;;;;;;;;;;5019381;28;20599;-66
2023/07/11 11:54:37;;;;;;;10.68;5.65;;;;;;;;;;5019900;28;20202;-67
2023/07/11 11:57:04;;;;;;;7.72;6.10;;;;;;;;;;5016901;28;20795;-67
2023/07/11 11:59:32;;;;;;;9.88;5.60;;;;;;;;;;5019229;28;20698;-64
2023/07/11 12:02:10;;;;;;;6.47;5.53;;;;;;;;;;5016286;28;20653;-64
2023/07/11 12:04:43;;;;;;;6.35;5.75;;;;;;;;;;5039514;28;20230;-65
2023/07/11 12:07:10;;;;;;;8.57;5.60;;;;;;;;;;5048375;28;20310;-66
2023/07/11 12:09:53;;;;;;;5.63;5.03;;;;;;;;;;5047473;28;20231;-66
2023/07/11 12:12:44;;;;;;;10.90;5.78;;;;;;;;;;5043283;28;20199;-65
2023/07/11 12:15:11;;;;;;;7.20;5.32;;;;;;;;;;5061214;28;20594;-65
2023/07/11 12:17:39;;;;;;;6.05;5.45;;;;;;;;;;5059094;28;20667;-67
2023/07/11 12:20:06;;;;;;;6.15;5.63;;;;;;;;;;5049085;28;20213;-66
2023/07/11 12:22:37;;;;;;;7.43;5.80;;;;;;;;;;5049759;28;20625;-66
2023/07/11 12:25:07;;;;;;;8.77;5.25;;;;;;;;;;5055921;28;20267;-66
2023/07/11 12:27:35;;;;;;;6.90;5.50;;;;;;;;;;5043958;28;20198;-66
2023/07/11 12:30:04;;;;;;;6.35;5.75;;;;;;;;;;5049875;28;20273;-67
2023/07/11 12:32:31;;;;;;;7.53;5.20;;;;;;;;;;5052569;28;20212;-64
2023/07/11 12:34:58;;;;;;;6.03;5.53;;;;;;;;;;5044475;28;20238;-70
2023/07/11 12:37:27;;;;;;;8.63;6.18;;;;;;;;;;5025914;28;20225;-69
2023/07/11 12:40:13;;;;;;;6.32;5.70;;;;;;;;;;5028581;28;20217;-63
2023/07/11 12:42:54;;;;;;;10.27;6.05;;;;;;;;;;5022912;28;20661;-66
2023/07/11 12:45:23;;;;;;;6.45;5.45;;;;;;;;;;5023597;28;20325;-68
2023/07/11 12:47:56;;;;;;;6.72;5.78;;;;;;;;;;5026595;28;20209;-66
2023/07/11 12:50:33;;;;;;;8.40;5.20;;;;;;;;;;5026578;28;20198;-63
2023/07/11 12:53:01;;;;;;;6.60;5.03;;;;;;;;;;5023938;28;20613;-64
2023/07/11 12:55:29;;;;;;;6.38;5.13;;;;;;;;;;5022461;28;20234;-67
2023/07/11 12:57:57;;;;;;;5.55;4.70;;;;;;;;;;5022956;28;20225;-63
2023/07/11 13:00:28;;;;;;;5.68;5.18;;;;;;;;;;5038780;28;20599;-66
2023/07/11 13:02:57;;;;;;;8.35;6.03;;;;;;;;;;5050896;28;20205;-66
2023/07/11 13:05:25;;;;;;;6.78;5.30;;;;;;;;;;5052205;28;20312;-66
2023/07/11 13:07:52;;;;;;;9.13;5.78;;;;;;;;;;5058528;28;20197;-66
2023/07/11 13:10:22;;;;;;;6.78;5.85;;;;;;;;;;5048388;28;20202;-65
2023/07/11 13:12:51;;;;;;;9.18;5.10;;;;;;;;;;5050264;28;20687;-66
2023/07/11 13:15:20;;;;;;;6.88;5.65;;;;;;;;;;5035882;28;20516;-68
2023/07/11 13:17:49;;;;;;;6.72;6.00;;;;;;;;;;5022471;28;20217;-63
2023/07/11 13:20:27;;;;;;;6.70;5.90;;;;;;;;;;5022853;28;20817;-65
2023/07/11 13:22:55;;;;;;;6.80;5.88;;;;;;;;;;5033651;28;20247;-66
2023/07/11 13:25:28;;;;;;;9.73;6.53;;;;;;;;;;5036888;28;20598;-66
2023/07/11 13:27:56;;;;;;;6.80;6.20;;;;;;;;;;5025428;28;20229;-67
2023/07/11 13:30:25;;;;;;;8.30;6.63;;;;;;;;;;5030905;28;20204;-67
2023/07/11 13:32:54;;;;;;;15.93;8.73;;;;;;;;;;5027905;28;20715;-67
2023/07/11 13:35:23;;;;;;;11.45;8.15;;;;;;;;;;5022727;28;20231;-64
2023/07/11 13:38:02;;;;;;;8.60;6.43;;;;;;;;;;5030011;28;20220;-64
2023/07/11 13:40:40;;;;;;;7.93;6.30;;;;;;;;;;5022649;28;20246;-64
2023/07/11 13:43:26;;;;;;;7.03;6.20;;;;;;;;;;5022798;28;20221;-62
2023/07/11 13:45:59;;;;;;;9.10;6.70;;;;;;;;;;5028397;28;20229;-64
2023/07/11 13:48:28;;;;;;;7.45;6.40;;;;;;;;;;5029049;28;20200;-64
2023/07/11 13:51:18;;;;;;;7.78;5.82;;;;;;;;;;5024364;28;20779;-64
2023/07/11 13:53:47;;;;;;;7.03;5.65;;;;;;;;;;5025267;28;20206;-64
2023/07/11 13:56:15;;;;;;;8.05;5.93;;;;;;;;;;5022395;28;20580;-64
2023/07/11 13:58:42;;;;;;;9.57;5.80;;;;;;;;;;5020625;28;20681;-63
2023/07/11 14:01:17;;;;;;;7.32;5.95;;;;;;;;;;5022863;28;20249;-64
2023/07/11 14:03:46;;;;;;;9.00;6.18;;;;;;;;;;5020240;28;20516;-63
2023/07/11 14:06:15;;;;;;;6.57;5.85;;;;;;;;;;5042862;28;20225;-65
2023/07/11 14:08:44;;;;;;;6.43;5.72;;;;;;;;;;5049877;28;20198;-67
2023/07/11 14:11:22;;;;;;;6.35;5.57;;;;;;;;;;5036932;28;20206;-67
2023/07/11 14:13:51;;;;;;;6.03;5.38;;;;;;;;;;5047827;28;20212;-67
2023/07/11 14:16:20;;;;;;;6.93;5.38;;;;;;;;;;5054986;28;20231;-65
2023/07/11 14:18:49;;;;;;;10.40;5.70;;;;;;;;;;5051078;28;20213;-67
2023/07/11 14:21:17;;;;;;;6.97;5.60;;;;;;;;;;5038698;28;20694;-65
2023/07/11 14:23:45;;;;;;;5.93;5.43;;;;;;;;;;5044855;28;20251;-66
2023/07/11 14:26:14;;;;;;;6.35;5.70;;;;;;;;;;5050329;28;20237;-67
2023/07/11 14:28:41;;;;;;;7.25;5.75;;;;;;;;;;5045748;28;20202;-66
2023/07/11 14:31:16;;;;;;;6.43;5.57;;;;;;;;;;5050806;28;20230;-65
2023/07/11 14:33:44;;;;;;;7.18;5.40;;;;;;;;;;5044807;28;20299;-64
2023/07/11 14:36:11;;;;;;;5.90;5.28;;;;;;;;;;5058663;28;20670;-65
2023/07/11 14:38:39;;;;;;;6.40;5.25;;;;;;;;;;5057810;28;20209;-64
2023/07/11 14:41:06;;;;;;;6.82;5.30;;;;;;;;;;5051541;28;20201;-67
2023/07/11 14:43:36;;;;;;;7.38;5.00;;;;;;;;;;5056208;28;20202;-65
2023/07/11 14:46:03;;;;;;;7.30;5.03;;;;;;;;;;5053235;28;20237;-65
2023/07/11 14:48:30;;;;;;;5.85;5.18;;;;;;;;;;5040741;28;20205;-67
2023/07/11 14:51:00;;;;;;;6.68;4.80;;;;;;;;;;5038809;28;20206;-64
2023/07/11 14:53:30;;;;;;;5.78;5.20;;;;;;;;;;5026298;28;20795;-66
2023/07/11 14:56:00;;;;;;;5.80;5.22;;;;;;;;;;5020440;28;20225;-63
2023/07/11 14:58:48;;;;;;;6.07;5.20;;;;;;;;;;5027383;28;21012;-65
2023/07/11 15:01:16;;;;;;;9.25;5.43;;;;;;;;;;5020166;28;20202;-67
2023/07/11 15:03:44;;;;;;;7.63;5.90;;;;;;;;;;5013428;28;21312;-64